<?xml version="1.0" encoding="UTF-8" standalone="no" ?>
<gpx xmlns="http://www.topografix.com/GPX/1/1" xmlns:xsi="http://www.w3.org/2001/XMLSchema-instance" xsi:schemaLocation="http://www.topografix.com/GPX/1/1 http://www.topografix.com/GPX/1/1/gpx.xsd" version="1.1" creator="VisuGPX - https://www.visugpx.com">
  <metadata>
    <name>Col de Carri-Col de la Baume (Drôme)</name>
    <desc><![CDATA[Randonnée facile dans la Forêt de Lente au départ du Col de Carri]]></desc>
  </metadata>
  <trk>
    <name><![CDATA[La Draille des Moutons - F]]></name>
    <trkseg>
      <trkpt lat="44.94489" lon="5.36164">
        <ele>1214</ele>
        <time>2020-04-26T19:05:12.26Z</time>
      </trkpt>
      <trkpt lat="44.94457" lon="5.36193">
        <ele>1213</ele>
        <time>2020-04-26T19:05:58.56Z</time>
      </trkpt>
      <trkpt lat="44.94428" lon="5.3622">
        <ele>1215</ele>
        <time>2020-04-26T19:06:43.61Z</time>
      </trkpt>
      <trkpt lat="44.94414" lon="5.36244">
        <ele>1217</ele>
        <time>2020-04-26T19:07:12.94Z</time>
      </trkpt>
      <trkpt lat="44.94392" lon="5.36226">
        <ele>1221</ele>
        <time>2020-04-26T19:08:00.15Z</time>
      </trkpt>
      <trkpt lat="44.94298" lon="5.36268">
        <ele>1241</ele>
        <time>2020-04-26T19:10:56.91Z</time>
      </trkpt>
      <trkpt lat="44.94234" lon="5.36483">
        <ele>1270</ele>
        <time>2020-04-26T19:14:50.73Z</time>
      </trkpt>
      <trkpt lat="44.94226" lon="5.36684">
        <ele>1277</ele>
        <time>2020-04-26T19:17:43.90Z</time>
      </trkpt>
      <trkpt lat="44.94217" lon="5.36747">
        <ele>1279</ele>
        <time>2020-04-26T19:18:38.89Z</time>
      </trkpt>
      <trkpt lat="44.94226" lon="5.3689">
        <ele>1285</ele>
        <time>2020-04-26T19:20:47.25Z</time>
      </trkpt>
      <trkpt lat="44.94213" lon="5.36963">
        <ele>1290</ele>
        <time>2020-04-26T19:21:59.95Z</time>
      </trkpt>
      <trkpt lat="44.94214" lon="5.37047">
        <ele>1297</ele>
        <time>2020-04-26T19:23:24.05Z</time>
      </trkpt>
      <trkpt lat="44.94257" lon="5.37244">
        <ele>1314</ele>
        <time>2020-04-26T19:26:38.28Z</time>
      </trkpt>
      <trkpt lat="44.9424" lon="5.37486">
        <ele>1329</ele>
        <time>2020-04-26T19:30:17.44Z</time>
      </trkpt>
      <trkpt lat="44.94232" lon="5.37486">
        <ele>1330</ele>
        <time>2020-04-26T19:30:27.04Z</time>
      </trkpt>
      <trkpt lat="44.94232" lon="5.37375">
        <ele>1335</ele>
        <time>2020-04-26T19:32:05.05Z</time>
      </trkpt>
      <trkpt lat="44.94193" lon="5.37219">
        <ele>1343</ele>
        <time>2020-04-26T19:34:32.71Z</time>
      </trkpt>
      <trkpt lat="44.94155" lon="5.37137">
        <ele>1348</ele>
        <time>2020-04-26T19:35:59.31Z</time>
      </trkpt>
      <trkpt lat="44.94128" lon="5.37126">
        <ele>1350</ele>
        <time>2020-04-26T19:36:35.17Z</time>
      </trkpt>
      <trkpt lat="44.94104" lon="5.3703">
        <ele>1355</ele>
        <time>2020-04-26T19:38:05.94Z</time>
      </trkpt>
      <trkpt lat="44.94095" lon="5.37023">
        <ele>1356</ele>
        <time>2020-04-26T19:38:19.10Z</time>
      </trkpt>
      <trkpt lat="44.9409" lon="5.37034">
        <ele>1356</ele>
        <time>2020-04-26T19:38:31.37Z</time>
      </trkpt>
      <trkpt lat="44.94075" lon="5.37161">
        <ele>1363</ele>
        <time>2020-04-26T19:40:24.74Z</time>
      </trkpt>
      <trkpt lat="44.941" lon="5.37182">
        <ele>1364</ele>
        <time>2020-04-26T19:41:01.47Z</time>
      </trkpt>
      <trkpt lat="44.94119" lon="5.37186">
        <ele>1366</ele>
        <time>2020-04-26T19:41:24.49Z</time>
      </trkpt>
      <trkpt lat="44.94137" lon="5.37279">
        <ele>1370</ele>
        <time>2020-04-26T19:42:48.71Z</time>
      </trkpt>
      <trkpt lat="44.94135" lon="5.37316">
        <ele>1372</ele>
        <time>2020-04-26T19:43:22.09Z</time>
      </trkpt>
      <trkpt lat="44.94126" lon="5.37344">
        <ele>1374</ele>
        <time>2020-04-26T19:43:50.47Z</time>
      </trkpt>
      <trkpt lat="44.94126" lon="5.37401">
        <ele>1377</ele>
        <time>2020-04-26T19:44:42.47Z</time>
      </trkpt>
      <trkpt lat="44.94109" lon="5.37418">
        <ele>1379</ele>
        <time>2020-04-26T19:45:09.24Z</time>
      </trkpt>
      <trkpt lat="44.94083" lon="5.37412">
        <ele>1382</ele>
        <time>2020-04-26T19:45:46.65Z</time>
      </trkpt>
      <trkpt lat="44.94048" lon="5.37355">
        <ele>1388</ele>
        <time>2020-04-26T19:47:02.11Z</time>
      </trkpt>
      <trkpt lat="44.94008" lon="5.37308">
        <ele>1394</ele>
        <time>2020-04-26T19:48:16.81Z</time>
      </trkpt>
      <trkpt lat="44.93952" lon="5.37217">
        <ele>1405</ele>
        <time>2020-04-26T19:50:24.04Z</time>
      </trkpt>
      <trkpt lat="44.93936" lon="5.37178">
        <ele>1409</ele>
        <time>2020-04-26T19:51:08.03Z</time>
      </trkpt>
      <trkpt lat="44.93948" lon="5.37062">
        <ele>1418</ele>
        <time>2020-04-26T19:52:54.76Z</time>
      </trkpt>
      <trkpt lat="44.93935" lon="5.36886">
        <ele>1427</ele>
        <time>2020-04-26T19:55:30.73Z</time>
      </trkpt>
      <trkpt lat="44.93936" lon="5.36845">
        <ele>1428</ele>
        <time>2020-04-26T19:56:05.21Z</time>
      </trkpt>
      <trkpt lat="44.93918" lon="5.36852">
        <ele>1429</ele>
        <time>2020-04-26T19:56:27.41Z</time>
      </trkpt>
      <trkpt lat="44.93903" lon="5.36886">
        <ele>1430</ele>
        <time>2020-04-26T19:57:00.95Z</time>
      </trkpt>
      <trkpt lat="44.93886" lon="5.36873">
        <ele>1430</ele>
        <time>2020-04-26T19:57:23.11Z</time>
      </trkpt>
      <trkpt lat="44.93869" lon="5.36841">
        <ele>1431</ele>
        <time>2020-04-26T19:57:56.51Z</time>
      </trkpt>
      <trkpt lat="44.93813" lon="5.36809">
        <ele>1433</ele>
        <time>2020-04-26T19:59:08.44Z</time>
      </trkpt>
      <trkpt lat="44.93792" lon="5.36757">
        <ele>1435</ele>
        <time>2020-04-26T20:00:00.08Z</time>
      </trkpt>
      <trkpt lat="44.93786" lon="5.3671">
        <ele>1437</ele>
        <time>2020-04-26T20:00:41.56Z</time>
      </trkpt>
      <trkpt lat="44.93822" lon="5.36641">
        <ele>1440</ele>
        <time>2020-04-26T20:01:55.42Z</time>
      </trkpt>
      <trkpt lat="44.93824" lon="5.36588">
        <ele>1442</ele>
        <time>2020-04-26T20:02:42.08Z</time>
      </trkpt>
      <trkpt lat="44.93809" lon="5.36547">
        <ele>1444</ele>
        <time>2020-04-26T20:03:21.60Z</time>
      </trkpt>
      <trkpt lat="44.93756" lon="5.36541">
        <ele>1446</ele>
        <time>2020-04-26T20:04:24.57Z</time>
      </trkpt>
      <trkpt lat="44.93745" lon="5.36504">
        <ele>1447</ele>
        <time>2020-04-26T20:04:57.54Z</time>
      </trkpt>
      <trkpt lat="44.93746" lon="5.36453">
        <ele>1448</ele>
        <time>2020-04-26T20:05:38.22Z</time>
      </trkpt>
      <trkpt lat="44.93707" lon="5.36343">
        <ele>1446</ele>
        <time>2020-04-26T20:07:15.18Z</time>
      </trkpt>
      <trkpt lat="44.93648" lon="5.36298">
        <ele>1444</ele>
        <time>2020-04-26T20:08:29.72Z</time>
      </trkpt>
      <trkpt lat="44.93646" lon="5.36235">
        <ele>1442</ele>
        <time>2020-04-26T20:09:19.09Z</time>
      </trkpt>
      <trkpt lat="44.93626" lon="5.36195">
        <ele>1440</ele>
        <time>2020-04-26T20:09:57.99Z</time>
      </trkpt>
      <trkpt lat="44.93557" lon="5.36126">
        <ele>1438</ele>
        <time>2020-04-26T20:11:31.60Z</time>
      </trkpt>
      <trkpt lat="44.93514" lon="5.36069">
        <ele>1439</ele>
        <time>2020-04-26T20:12:41.43Z</time>
      </trkpt>
      <trkpt lat="44.935" lon="5.36047">
        <ele>1440</ele>
        <time>2020-04-26T20:13:06.06Z</time>
      </trkpt>
      <trkpt lat="44.93478" lon="5.36032">
        <ele>1441</ele>
        <time>2020-04-26T20:13:34.87Z</time>
      </trkpt>
      <trkpt lat="44.9345" lon="5.36023">
        <ele>1442</ele>
        <time>2020-04-26T20:14:09Z</time>
      </trkpt>
      <trkpt lat="44.93388" lon="5.36049">
        <ele>1446</ele>
        <time>2020-04-26T20:15:29.44Z</time>
      </trkpt>
      <trkpt lat="44.93308" lon="5.36059">
        <ele>1451</ele>
        <time>2020-04-26T20:17:07.87Z</time>
      </trkpt>
      <trkpt lat="44.93189" lon="5.36">
        <ele>1458</ele>
        <time>2020-04-26T20:19:39.05Z</time>
      </trkpt>
      <trkpt lat="44.93119" lon="5.35886">
        <ele>1461</ele>
        <time>2020-04-26T20:21:42.98Z</time>
      </trkpt>
      <trkpt lat="44.93092" lon="5.35827">
        <ele>1462</ele>
        <time>2020-04-26T20:22:39.90Z</time>
      </trkpt>
      <trkpt lat="44.9305" lon="5.35783">
        <ele>1462</ele>
        <time>2020-04-26T20:23:38.18Z</time>
      </trkpt>
      <trkpt lat="44.9302" lon="5.35692">
        <ele>1463</ele>
        <time>2020-04-26T20:24:58.71Z</time>
      </trkpt>
      <trkpt lat="44.92989" lon="5.35668">
        <ele>1463</ele>
        <time>2020-04-26T20:25:38.79Z</time>
      </trkpt>
      <trkpt lat="44.92978" lon="5.35621">
        <ele>1464</ele>
        <time>2020-04-26T20:26:19.47Z</time>
      </trkpt>
      <trkpt lat="44.9299" lon="5.35546">
        <ele>1465</ele>
        <time>2020-04-26T20:27:24.04Z</time>
      </trkpt>
      <trkpt lat="44.92948" lon="5.35475">
        <ele>1468</ele>
        <time>2020-04-26T20:28:45.63Z</time>
      </trkpt>
      <trkpt lat="44.92817" lon="5.35391">
        <ele>1479</ele>
        <time>2020-04-26T20:31:51.15Z</time>
      </trkpt>
      <trkpt lat="44.92708" lon="5.3525">
        <ele>1494</ele>
        <time>2020-04-26T20:34:55.46Z</time>
      </trkpt>
      <trkpt lat="44.92577" lon="5.35173">
        <ele>1498</ele>
        <time>2020-04-26T20:37:33.45Z</time>
      </trkpt>
      <trkpt lat="44.92435" lon="5.35133">
        <ele>1489</ele>
        <time>2020-04-26T20:40:15.93Z</time>
      </trkpt>
      <trkpt lat="44.92386" lon="5.3509">
        <ele>1485</ele>
        <time>2020-04-26T20:41:20.46Z</time>
      </trkpt>
      <trkpt lat="44.92297" lon="5.35042">
        <ele>1482</ele>
        <time>2020-04-26T20:43:05.69Z</time>
      </trkpt>
      <trkpt lat="44.92234" lon="5.35035">
        <ele>1482</ele>
        <time>2020-04-26T20:44:18.10Z</time>
      </trkpt>
      <trkpt lat="44.92207" lon="5.3499">
        <ele>1483</ele>
        <time>2020-04-26T20:45:06.37Z</time>
      </trkpt>
      <trkpt lat="44.92204" lon="5.34888">
        <ele>1485</ele>
        <time>2020-04-26T20:46:29.62Z</time>
      </trkpt>
      <trkpt lat="44.92174" lon="5.34787">
        <ele>1486</ele>
        <time>2020-04-26T20:47:57.12Z</time>
      </trkpt>
      <trkpt lat="44.92146" lon="5.34742">
        <ele>1486</ele>
        <time>2020-04-26T20:48:44.75Z</time>
      </trkpt>
      <trkpt lat="44.92069" lon="5.34722">
        <ele>1483</ele>
        <time>2020-04-26T20:50:11.90Z</time>
      </trkpt>
      <trkpt lat="44.91986" lon="5.34684">
        <ele>1478</ele>
        <time>2020-04-26T20:51:52.37Z</time>
      </trkpt>
      <trkpt lat="44.91982" lon="5.34668">
        <ele>1477</ele>
        <time>2020-04-26T20:52:06.59Z</time>
      </trkpt>
      <trkpt lat="44.92143" lon="5.34651">
        <ele>1461</ele>
        <time>2020-04-26T20:55:17.80Z</time>
      </trkpt>
      <trkpt lat="44.9217" lon="5.34622">
        <ele>1457</ele>
        <time>2020-04-26T20:55:59.11Z</time>
      </trkpt>
      <trkpt lat="44.92235" lon="5.34652">
        <ele>1448</ele>
        <time>2020-04-26T20:57:22.80Z</time>
      </trkpt>
      <trkpt lat="44.92311" lon="5.3458">
        <ele>1437</ele>
        <time>2020-04-26T20:59:12.27Z</time>
      </trkpt>
      <trkpt lat="44.92339" lon="5.34441">
        <ele>1426</ele>
        <time>2020-04-26T21:01:10.55Z</time>
      </trkpt>
      <trkpt lat="44.92505" lon="5.34437">
        <ele>1415</ele>
        <time>2020-04-26T21:04:16.85Z</time>
      </trkpt>
      <trkpt lat="44.92578" lon="5.34398">
        <ele>1411</ele>
        <time>2020-04-26T21:05:43.93Z</time>
      </trkpt>
      <trkpt lat="44.92645" lon="5.34412">
        <ele>1408</ele>
        <time>2020-04-26T21:06:58.82Z</time>
      </trkpt>
      <trkpt lat="44.92689" lon="5.34356">
        <ele>1405</ele>
        <time>2020-04-26T21:08:05.35Z</time>
      </trkpt>
      <trkpt lat="44.92794" lon="5.34352">
        <ele>1399</ele>
        <time>2020-04-26T21:10:02.24Z</time>
      </trkpt>
      <trkpt lat="44.92826" lon="5.34367">
        <ele>1397</ele>
        <time>2020-04-26T21:10:40.86Z</time>
      </trkpt>
      <trkpt lat="44.92868" lon="5.34352">
        <ele>1393</ele>
        <time>2020-04-26T21:11:31.86Z</time>
      </trkpt>
      <trkpt lat="44.93064" lon="5.34374">
        <ele>1373</ele>
        <time>2020-04-26T21:15:27.71Z</time>
      </trkpt>
      <trkpt lat="44.93179" lon="5.34342">
        <ele>1357</ele>
        <time>2020-04-26T21:17:50.70Z</time>
      </trkpt>
      <trkpt lat="44.93225" lon="5.3425">
        <ele>1347</ele>
        <time>2020-04-26T21:19:28.96Z</time>
      </trkpt>
      <trkpt lat="44.93221" lon="5.34169">
        <ele>1340</ele>
        <time>2020-04-26T21:20:37.62Z</time>
      </trkpt>
      <trkpt lat="44.9325" lon="5.34118">
        <ele>1335</ele>
        <time>2020-04-26T21:21:30.64Z</time>
      </trkpt>
      <trkpt lat="44.93298" lon="5.34085">
        <ele>1332</ele>
        <time>2020-04-26T21:22:31.09Z</time>
      </trkpt>
      <trkpt lat="44.93355" lon="5.3412">
        <ele>1331</ele>
        <time>2020-04-26T21:23:40.47Z</time>
      </trkpt>
      <trkpt lat="44.93376" lon="5.34134">
        <ele>1331</ele>
        <time>2020-04-26T21:24:09.73Z</time>
      </trkpt>
      <trkpt lat="44.93488" lon="5.34207">
        <ele>1344</ele>
        <time>2020-04-26T21:27:03.26Z</time>
      </trkpt>
      <trkpt lat="44.9353" lon="5.34214">
        <ele>1350</ele>
        <time>2020-04-26T21:28:08.21Z</time>
      </trkpt>
      <trkpt lat="44.93598" lon="5.34292">
        <ele>1362</ele>
        <time>2020-04-26T21:30:01.21Z</time>
      </trkpt>
      <trkpt lat="44.93658" lon="5.34396">
        <ele>1366</ele>
        <time>2020-04-26T21:31:46.20Z</time>
      </trkpt>
      <trkpt lat="44.93693" lon="5.34475">
        <ele>1360</ele>
        <time>2020-04-26T21:33:05.61Z</time>
      </trkpt>
      <trkpt lat="44.9371" lon="5.34533">
        <ele>1354</ele>
        <time>2020-04-26T21:34:05.71Z</time>
      </trkpt>
      <trkpt lat="44.93844" lon="5.34588">
        <ele>1328</ele>
        <time>2020-04-26T21:36:57.40Z</time>
      </trkpt>
      <trkpt lat="44.94063" lon="5.34634">
        <ele>1306</ele>
        <time>2020-04-26T21:41:16.96Z</time>
      </trkpt>
      <trkpt lat="44.94081" lon="5.34693">
        <ele>1303</ele>
        <time>2020-04-26T21:42:08.90Z</time>
      </trkpt>
      <trkpt lat="44.9407" lon="5.34804">
        <ele>1296</ele>
        <time>2020-04-26T21:43:43.05Z</time>
      </trkpt>
      <trkpt lat="44.94071" lon="5.34879">
        <ele>1290</ele>
        <time>2020-04-26T21:44:49.04Z</time>
      </trkpt>
      <trkpt lat="44.94102" lon="5.35001">
        <ele>1275</ele>
        <time>2020-04-26T21:46:52.17Z</time>
      </trkpt>
      <trkpt lat="44.94139" lon="5.35071">
        <ele>1264</ele>
        <time>2020-04-26T21:48:15.41Z</time>
      </trkpt>
      <trkpt lat="44.94219" lon="5.35198">
        <ele>1244</ele>
        <time>2020-04-26T21:50:51.03Z</time>
      </trkpt>
      <trkpt lat="44.94243" lon="5.35226">
        <ele>1240</ele>
        <time>2020-04-26T21:51:29.70Z</time>
      </trkpt>
      <trkpt lat="44.94267" lon="5.35279">
        <ele>1234</ele>
        <time>2020-04-26T21:52:22.16Z</time>
      </trkpt>
      <trkpt lat="44.94319" lon="5.35328">
        <ele>1228</ele>
        <time>2020-04-26T21:53:34.20Z</time>
      </trkpt>
      <trkpt lat="44.9442" lon="5.3547">
        <ele>1219</ele>
        <time>2020-04-26T21:56:12.87Z</time>
      </trkpt>
      <trkpt lat="44.94468" lon="5.35601">
        <ele>1215</ele>
        <time>2020-04-26T21:58:09.15Z</time>
      </trkpt>
      <trkpt lat="44.94443" lon="5.35721">
        <ele>1214</ele>
        <time>2020-04-26T21:59:48.03Z</time>
      </trkpt>
      <trkpt lat="44.94439" lon="5.35788">
        <ele>1215</ele>
        <time>2020-04-26T22:00:41.88Z</time>
      </trkpt>
      <trkpt lat="44.94389" lon="5.35927">
        <ele>1216</ele>
        <time>2020-04-26T22:02:48.08Z</time>
      </trkpt>
      <trkpt lat="44.94365" lon="5.35961">
        <ele>1217</ele>
        <time>2020-04-26T22:03:26.76Z</time>
      </trkpt>
      <trkpt lat="44.94368" lon="5.36001">
        <ele>1217</ele>
        <time>2020-04-26T22:03:59.73Z</time>
      </trkpt>
      <trkpt lat="44.94411" lon="5.36084">
        <ele>1218</ele>
        <time>2020-04-26T22:05:21.79Z</time>
      </trkpt>
      <trkpt lat="44.94424" lon="5.36117">
        <ele>1218</ele>
        <time>2020-04-26T22:05:51.61Z</time>
      </trkpt>
      <trkpt lat="44.94436" lon="5.36156">
        <ele>1217</ele>
        <time>2020-04-26T22:06:25.50Z</time>
      </trkpt>
      <trkpt lat="44.94428" lon="5.3622">
        <ele>1216</ele>
        <time>2020-04-26T22:07:16.32Z</time>
      </trkpt>
      <trkpt lat="44.94457" lon="5.36193">
        <ele>1213</ele>
        <time>2020-04-26T22:07:56.14Z</time>
      </trkpt>
      <trkpt lat="44.94475" lon="5.36169">
        <ele>1211</ele>
        <time>2020-04-26T22:08:24.92Z</time>
      </trkpt>
    </trkseg>
  </trk>
</gpx>